Time;durP1;ratioP1;P1;durP2;ratioP2;P2;SDS_P1;SDS_P2;PMS_P1;PMS_P2;Temp;Humidity;BMP_temperature;BMP_pressure;BME280_temperature;BME280_humidity;BME280_pressure;Samples;Min_cycle;Max_cycle;Signal;HPM_P1;HPM_P2
2023/09/02 00:01:33;;;;;;;14.88;9.43;;;10.40;96.60;;;;;;5065329;28;20495;-73
2023/09/02 00:03:58;;;;;;;12.95;9.30;;;10.30;96.50;;;;;;5063900;28;20037;-73
2023/09/02 00:06:24;;;;;;;14.10;9.07;;;10.20;96.20;;;;;;5061145;28;20037;-73
2023/09/02 00:08:49;;;;;;;18.38;9.32;;;10.30;96.40;;;;;;5064105;28;20134;-73
2023/09/02 00:11:15;;;;;;;16.45;9.35;;;10.20;96.10;;;;;;5069036;28;20055;-74
2023/09/02 00:13:40;;;;;;;18.95;9.85;;;10.20;96.20;;;;;;5059967;28;20028;-73
2023/09/02 00:16:05;;;;;;;16.30;9.68;;;10.10;96.10;;;;;;5062631;28;20035;-73
2023/09/02 00:18:31;;;;;;;18.63;10.07;;;10.10;96.40;;;;;;5063375;28;20149;-73
2023/09/02 00:20:57;;;;;;;14.88;10.50;;;10.10;96.40;;;;;;5063196;28;20033;-73
2023/09/02 00:23:22;;;;;;;14.68;9.35;;;10.10;96.40;;;;;;5060996;28;20601;-73
2023/09/02 00:25:48;;;;;;;15.07;9.63;;;10.00;96.10;;;;;;5065669;28;20048;-73
2023/09/02 00:28:13;;;;;;;15.20;10.63;;;10.00;96.10;;;;;;5064493;28;20097;-73
2023/09/02 00:30:38;;;;;;;16.50;9.70;;;10.00;96.00;;;;;;5062938;28;20032;-72
2023/09/02 00:33:04;;;;;;;17.20;10.82;;;10.00;95.90;;;;;;5061588;28;20409;-73
2023/09/02 00:35:29;;;;;;;13.18;10.10;;;10.00;96.20;;;;;;5059722;28;20071;-73
2023/09/02 00:37:55;;;;;;;14.05;9.55;;;9.90;96.10;;;;;;5072842;28;20077;-73
2023/09/02 00:40:23;;;;;;;14.40;9.30;;;9.90;96.20;;;;;;5066273;28;20024;-73
2023/09/02 00:42:52;;;;;;;13.18;8.07;;;9.80;96.10;;;;;;5072035;28;20045;-73
2023/09/02 00:45:21;;;;;;;14.88;7.85;;;9.80;96.00;;;;;;5069729;28;20313;-73
2023/09/02 00:47:49;;;;;;;12.55;7.75;;;9.80;96.10;;;;;;5070903;28;20035;-73
2023/09/02 00:50:15;;;;;;;10.70;7.70;;;9.70;96.20;;;;;;5067272;28;20052;-73
2023/09/02 00:52:40;;;;;;;12.55;7.75;;;9.70;96.30;;;;;;5071767;28;20025;-73
2023/09/02 00:55:06;;;;;;;14.48;8.25;;;9.70;96.10;;;;;;5067801;28;20086;-73
2023/09/02 00:57:32;;;;;;;10.15;6.82;;;9.60;96.00;;;;;;5066156;28;20032;-73
2023/09/02 00:59:58;;;;;;;13.98;7.63;;;9.70;96.00;;;;;;5072505;28;20100;-73
2023/09/02 01:02:24;;;;;;;11.48;7.63;;;9.60;95.90;;;;;;5067700;28;20538;-73
2023/09/02 01:04:49;;;;;;;16.50;7.75;;;9.60;95.90;;;;;;5070986;28;20035;-73
2023/09/02 01:07:17;;;;;;;12.82;6.70;;;9.60;95.90;;;;;;5064001;28;20021;-73
2023/09/02 01:09:43;;;;;;;9.02;6.20;;;9.60;95.90;;;;;;5067914;28;20493;-73
2023/09/02 01:12:10;;;;;;;10.80;6.80;;;9.60;96.00;;;;;;5062868;28;20107;-73
2023/09/02 01:14:35;;;;;;;11.68;6.55;;;9.50;96.00;;;;;;5067422;28;20032;-73
2023/09/02 01:17:01;;;;;;;11.55;6.82;;;9.50;96.00;;;;;;5068406;28;20033;-73
2023/09/02 01:19:28;;;;;;;12.45;6.30;;;9.50;96.10;;;;;;5063853;28;20033;-73
2023/09/02 01:22:14;;;;;;;11.00;7.10;;;9.50;96.10;;;;;;5070031;28;20449;-73
2023/09/02 01:25:03;;;;;;;11.27;6.45;;;9.40;96.20;;;;;;5061538;28;20529;-73
2023/09/02 01:27:38;;;;;;;12.98;7.63;;;9.40;96.30;;;;;;5068563;28;20094;-73
2023/09/02 01:30:09;;;;;;;11.48;7.20;;;9.40;96.30;;;;;;5069123;28;20467;-73
2023/09/02 01:32:39;;;;;;;11.70;6.90;;;9.30;96.40;;;;;;5064190;28;20021;-73
2023/09/02 01:35:07;;;;;;;12.07;7.40;;;9.30;96.20;;;;;;5064953;28;20114;-73
2023/09/02 01:37:38;;;;;;;12.95;6.95;;;9.30;96.10;;;;;;5067805;28;20025;-74
2023/09/02 01:40:06;;;;;;;14.75;6.68;;;9.30;95.90;;;;;;5071383;28;20409;-73
2023/09/02 01:42:33;;;;;;;12.25;7.63;;;9.20;95.90;;;;;;5070560;28;20032;-73
2023/09/02 01:44:59;;;;;;;14.38;7.55;;;9.30;95.90;;;;;;5073143;28;20036;-73
2023/09/02 01:47:26;;;;;;;10.88;7.22;;;9.20;95.90;;;;;;5070214;28;20029;-73
2023/09/02 01:49:51;;;;;;;12.75;7.85;;;9.30;96.20;;;;;;5064194;28;20025;-73
2023/09/02 01:52:18;;;;;;;13.77;7.95;;;9.20;96.40;;;;;;5067710;28;20585;-73
2023/09/02 01:54:44;;;;;;;12.02;7.88;;;9.20;96.60;;;;;;5070767;28;20020;-73
2023/09/02 01:57:10;;;;;;;19.52;8.50;;;9.20;96.80;;;;;;5072293;28;20027;-73
2023/09/02 01:59:36;;;;;;;13.93;8.45;;;9.30;96.80;;;;;;5069916;28;20226;-73
2023/09/02 02:02:02;;;;;;;13.82;8.13;;;9.30;97.00;;;;;;5068688;28;20036;-73
2023/09/02 02:04:36;;;;;;;14.50;8.18;;;9.30;97.20;;;;;;5066959;28;20047;-73
2023/09/02 02:07:08;;;;;;;16.73;9.70;;;9.30;97.20;;;;;;5065752;28;20029;-73
2023/09/02 02:09:43;;;;;;;15.10;9.00;;;9.20;97.10;;;;;;5070872;28;20058;-73
2023/09/02 02:12:09;;;;;;;14.75;8.45;;;9.20;96.90;;;;;;5068351;28;20032;-73
2023/09/02 02:14:35;;;;;;;14.32;8.57;;;9.10;96.70;;;;;;5066209;28;20050;-73
2023/09/02 02:17:03;;;;;;;17.73;9.05;;;9.10;96.70;;;;;;5067136;28;20029;-73
2023/09/02 02:19:29;;;;;;;14.00;8.40;;;9.10;96.80;;;;;;5067035;28;20054;-73
2023/09/02 02:21:54;;;;;;;14.27;9.23;;;9.10;96.60;;;;;;5064336;28;20500;-72
2023/09/02 02:24:19;;;;;;;15.48;9.23;;;9.10;96.70;;;;;;5068068;28;20139;-71
2023/09/02 02:26:45;;;;;;;13.10;8.40;;;9.10;96.60;;;;;;5067883;28;20037;-71
2023/09/02 02:29:10;;;;;;;18.63;8.75;;;9.00;96.60;;;;;;5065637;28;20067;-71
2023/09/02 02:31:36;;;;;;;18.17;9.88;;;9.10;96.60;;;;;;5065966;28;20040;-71
2023/09/02 02:34:02;;;;;;;15.82;9.30;;;9.10;96.60;;;;;;5067498;28;20349;-71
2023/09/02 02:36:28;;;;;;;12.15;8.25;;;9.10;96.60;;;;;;5065593;28;20021;-71
2023/09/02 02:38:53;;;;;;;15.48;9.30;;;9.10;96.70;;;;;;5067881;28;20550;-71
2023/09/02 02:41:19;;;;;;;16.33;9.43;;;9.00;96.70;;;;;;5070136;28;20426;-71
2023/09/02 02:43:44;;;;;;;15.40;10.10;;;9.00;96.70;;;;;;5063807;28;20039;-71
2023/09/02 02:46:10;;;;;;;16.38;9.48;;;9.00;96.80;;;;;;5068090;28;20028;-71
2023/09/02 02:48:35;;;;;;;16.23;10.05;;;9.00;96.90;;;;;;5065159;28;20504;-71
2023/09/02 02:51:01;;;;;;;18.95;10.27;;;9.00;96.90;;;;;;5066307;28;20040;-71
2023/09/02 02:53:26;;;;;;;18.95;10.55;;;9.00;97.00;;;;;;5068250;28;20033;-71
2023/09/02 02:55:52;;;;;;;13.20;9.18;;;9.00;97.10;;;;;;5068857;28;20028;-71
2023/09/02 02:58:17;;;;;;;15.55;9.65;;;8.90;97.00;;;;;;5069309;28;20032;-71
2023/09/02 03:00:44;;;;;;;14.25;8.90;;;9.00;97.10;;;;;;5067190;28;20123;-71
2023/09/02 03:03:10;;;;;;;14.73;9.23;;;8.90;97.00;;;;;;5068246;28;20028;-71
2023/09/02 03:05:37;;;;;;;15.50;9.18;;;8.90;97.10;;;;;;5067551;28;20119;-71
2023/09/02 03:08:04;;;;;;;14.80;8.63;;;8.90;97.20;;;;;;5069228;28;20028;-71
2023/09/02 03:10:29;;;;;;;14.40;8.95;;;8.80;97.10;;;;;;5071230;28;20052;-71
2023/09/02 03:12:55;;;;;;;16.85;9.02;;;8.80;97.00;;;;;;5072184;28;20067;-71
2023/09/02 03:15:20;;;;;;;14.20;8.85;;;8.90;97.20;;;;;;5069026;28;20032;-71
2023/09/02 03:17:46;;;;;;;13.82;8.32;;;8.90;97.40;;;;;;5064959;28;20067;-71
2023/09/02 03:20:11;;;;;;;15.65;8.98;;;9.00;97.50;;;;;;5068358;28;20441;-71
2023/09/02 03:22:41;;;;;;;21.50;9.88;;;8.90;97.40;;;;;;5064698;28;20058;-71
2023/09/02 03:25:06;;;;;;;15.85;8.90;;;8.90;97.50;;;;;;5070475;28;20036;-71
2023/09/02 03:27:32;;;;;;;17.67;9.57;;;8.90;97.60;;;;;;5065806;28;20103;-71
2023/09/02 03:29:59;;;;;;;16.48;9.80;;;8.90;97.60;;;;;;5065032;28;20053;-71
2023/09/02 03:32:26;;;;;;;18.65;10.13;;;8.90;97.70;;;;;;5066137;28;20031;-71
2023/09/02 03:34:52;;;;;;;19.05;10.50;;;8.90;97.70;;;;;;5064070;28;20021;-73
2023/09/02 03:37:17;;;;;;;17.88;10.13;;;8.80;97.50;;;;;;5062128;28;20020;-73
2023/09/02 03:39:43;;;;;;;18.80;10.20;;;8.80;97.40;;;;;;5066564;28;20061;-73
2023/09/02 03:42:09;;;;;;;23.25;10.35;;;8.80;97.40;;;;;;5068752;28;20036;-73
2023/09/02 03:44:34;;;;;;;18.60;10.77;;;8.90;97.50;;;;;;5064835;28;20028;-73
2023/09/02 03:47:00;;;;;;;16.10;9.77;;;8.90;97.70;;;;;;5064478;28;20028;-73
2023/09/02 03:49:25;;;;;;;17.95;10.15;;;8.90;97.70;;;;;;5064833;28;20028;-73
2023/09/02 03:51:50;;;;;;;15.80;9.85;;;8.90;97.80;;;;;;5066052;28;20440;-73
2023/09/02 03:54:16;;;;;;;20.65;10.80;;;8.80;97.70;;;;;;5069380;28;20039;-73
2023/09/02 03:56:41;;;;;;;17.48;9.77;;;8.80;97.70;;;;;;5067878;28;20021;-73
2023/09/02 03:59:07;;;;;;;17.83;9.93;;;8.80;97.60;;;;;;5058462;28;20477;-73
2023/09/02 04:01:32;;;;;;;17.50;10.70;;;8.80;97.60;;;;;;5066054;28;20031;-73
2023/09/02 04:03:59;;;;;;;21.70;10.63;;;8.80;97.70;;;;;;5066656;28;20115;-73
2023/09/02 04:06:24;;;;;;;18.45;10.20;;;8.80;97.80;;;;;;5063786;28;20396;-73
2023/09/02 04:08:50;;;;;;;21.33;10.93;;;8.80;97.80;;;;;;5070386;28;20033;-73
2023/09/02 04:11:16;;;;;;;18.05;9.68;;;8.70;97.80;;;;;;5066484;28;20029;-73
2023/09/02 04:13:42;;;;;;;18.52;10.63;;;8.70;97.80;;;;;;5072242;28;20028;-73
2023/09/02 04:16:10;;;;;;;22.70;10.60;;;8.70;97.90;;;;;;5064282;28;20115;-73
2023/09/02 04:18:35;;;;;;;19.13;10.15;;;8.70;97.80;;;;;;5066224;28;20032;-74
2023/09/02 04:21:02;;;;;;;21.55;10.80;;;8.70;97.80;;;;;;5067458;28;20479;-73
2023/09/02 04:23:28;;;;;;;21.35;10.30;;;8.70;97.90;;;;;;5068537;28;20490;-73
2023/09/02 04:25:55;;;;;;;20.88;10.43;;;8.60;97.80;;;;;;5070077;28;20125;-73
2023/09/02 04:28:21;;;;;;;17.10;9.85;;;8.70;97.90;;;;;;5070666;28;20086;-74
2023/09/02 04:30:48;;;;;;;16.95;8.73;;;8.70;98.10;;;;;;5062016;28;20431;-72
2023/09/02 04:33:14;;;;;;;15.77;9.32;;;8.70;98.30;;;;;;5066531;28;20028;-72
2023/09/02 04:35:42;;;;;;;16.85;8.57;;;8.80;98.40;;;;;;5068365;28;20392;-73
2023/09/02 04:38:08;;;;;;;19.02;8.52;;;8.80;98.50;;;;;;5070180;28;20503;-72
2023/09/02 04:40:40;;;;;;;17.60;8.82;;;8.70;98.50;;;;;;5071957;28;20025;-73
2023/09/02 04:43:07;;;;;;;16.08;8.27;;;8.70;98.40;;;;;;5071671;28;20105;-72
2023/09/02 04:45:36;;;;;;;18.00;8.80;;;8.60;98.30;;;;;;5068676;28;20032;-72
2023/09/02 04:48:03;;;;;;;17.63;8.45;;;8.60;98.10;;;;;;5068317;28;20043;-72
2023/09/02 04:50:29;;;;;;;18.15;8.45;;;8.60;97.90;;;;;;5069639;28;20031;-72
2023/09/02 04:52:56;;;;;;;20.25;8.27;;;8.60;98.00;;;;;;5072213;28;20021;-72
2023/09/02 04:55:24;;;;;;;16.40;8.73;;;8.60;98.00;;;;;;5073720;28;20025;-72
2023/09/02 04:57:50;;;;;;;16.30;7.95;;;8.60;98.00;;;;;;5071854;28;20380;-73
2023/09/02 05:00:16;;;;;;;18.20;8.88;;;8.70;98.00;;;;;;5070339;28;20130;-72
2023/09/02 05:02:44;;;;;;;17.08;9.40;;;8.70;98.10;;;;;;5070824;28;20020;-72
2023/09/02 05:05:10;;;;;;;19.85;8.68;;;8.70;98.10;;;;;;5066215;28;20433;-72
2023/09/02 05:07:35;;;;;;;15.25;8.13;;;8.70;98.00;;;;;;5071702;28;20044;-72
2023/09/02 05:10:01;;;;;;;18.13;9.07;;;8.80;98.00;;;;;;5073457;28;20056;-72
2023/09/02 05:12:27;;;;;;;20.50;9.13;;;8.80;98.00;;;;;;5073095;28;20089;-73
2023/09/02 05:14:52;;;;;;;21.05;9.85;;;8.80;98.00;;;;;;5075998;28;20027;-73
2023/09/02 05:17:18;;;;;;;19.35;9.15;;;8.80;98.10;;;;;;5068410;28;20124;-73
2023/09/02 05:19:43;;;;;;;18.83;9.15;;;8.90;98.20;;;;;;5067540;28;20114;-73
2023/09/02 05:22:09;;;;;;;17.42;9.32;;;8.90;98.10;;;;;;5069018;28;20082;-73
2023/09/02 05:24:35;;;;;;;17.50;9.07;;;9.00;98.20;;;;;;5068909;28;20066;-72
2023/09/02 05:27:00;;;;;;;17.25;9.20;;;9.00;98.20;;;;;;5070906;28;20028;-72
2023/09/02 05:29:25;;;;;;;18.60;9.40;;;9.10;98.30;;;;;;5068323;28;20028;-75
2023/09/02 05:31:51;;;;;;;17.80;9.35;;;9.10;98.30;;;;;;5065084;28;20025;-74
2023/09/02 05:34:16;;;;;;;18.02;9.10;;;9.10;98.30;;;;;;5064643;28;20439;-74
2023/09/02 05:36:42;;;;;;;17.27;9.15;;;9.20;98.40;;;;;;5062930;28;20535;-74
2023/09/02 05:39:07;;;;;;;22.98;10.73;;;9.30;98.40;;;;;;5067693;28;20048;-74
2023/09/02 05:41:33;;;;;;;17.27;9.48;;;9.40;98.50;;;;;;5063447;28;20085;-73
2023/09/02 05:43:58;;;;;;;20.25;9.40;;;9.40;98.50;;;;;;5068453;28;20029;-75
2023/09/02 05:46:24;;;;;;;21.15;9.85;;;9.50;98.50;;;;;;5068588;28;20036;-74
2023/09/02 05:48:49;;;;;;;21.00;10.05;;;9.60;98.50;;;;;;5064813;28;20020;-76
2023/09/02 05:51:15;;;;;;;17.13;9.57;;;9.60;98.50;;;;;;5066972;28;20021;-73
2023/09/02 05:53:40;;;;;;;22.35;10.50;;;9.70;98.50;;;;;;5058833;28;20013;-75
2023/09/02 05:56:06;;;;;;;26.30;11.20;;;9.80;98.60;;;;;;5069414;28;20028;-74
2023/09/02 05:58:31;;;;;;;25.88;12.13;;;10.00;98.60;;;;;;5062693;28;20029;-76
2023/09/02 06:01:05;;;;;;;33.05;14.15;;;10.10;98.70;;;;;;5065704;28;20038;-76
2023/09/02 06:03:31;;;;;;;40.20;15.32;;;10.20;98.80;;;;;;5063503;28;20554;-74
2023/09/02 06:05:57;;;;;;;29.63;14.63;;;10.40;99.00;;;;;;5068319;28;20115;-74
2023/09/02 06:08:22;;;;;;;34.60;14.48;;;10.50;99.10;;;;;;5070403;28;20097;-74
2023/09/02 06:10:58;;;;;;;37.03;16.38;;;10.60;99.10;;;;;;5068713;28;20029;-74
2023/09/02 06:13:24;;;;;;;31.33;14.55;;;10.60;99.10;;;;;;5072065;28;20100;-73
2023/09/02 06:15:49;;;;;;;31.98;15.55;;;10.80;99.10;;;;;;5067892;28;20121;-73
2023/09/02 06:18:15;;;;;;;38.65;16.02;;;10.90;99.10;;;;;;5065135;28;20120;-74
2023/09/02 06:20:40;;;;;;;34.03;16.10;;;11.00;99.20;;;;;;5060041;28;20055;-71
2023/09/02 06:23:06;;;;;;;34.72;15.95;;;11.10;99.20;;;;;;5068693;28;20111;-71
2023/09/02 06:25:31;;;;;;;35.53;15.20;;;11.20;99.20;;;;;;5070203;28;20057;-71
2023/09/02 06:27:57;;;;;;;36.22;15.65;;;11.30;99.20;;;;;;5065906;28;20046;-72
2023/09/02 06:30:22;;;;;;;40.05;16.38;;;11.50;99.20;;;;;;5065631;28;20044;-72
2023/09/02 06:32:48;;;;;;;40.00;15.82;;;11.50;99.20;;;;;;5063603;28;20434;-71
2023/09/02 06:35:15;;;;;;;35.72;15.65;;;11.70;99.30;;;;;;5065580;28;20720;-72
2023/09/02 06:37:41;;;;;;;37.70;16.23;;;11.80;99.20;;;;;;5068380;28;20025;-72
2023/09/02 06:40:07;;;;;;;45.58;18.30;;;12.00;99.40;;;;;;5065108;28;20032;-72
2023/09/02 06:42:33;;;;;;;42.53;16.58;;;12.10;99.50;;;;;;5068570;28;20050;-73
2023/09/02 06:44:58;;;;;;;40.78;17.52;;;12.30;99.50;;;;;;5069460;28;20040;-82
2023/09/02 06:47:24;;;;;;;46.55;17.15;;;12.60;99.60;;;;;;5066321;28;20033;-72
2023/09/02 06:49:49;;;;;;;41.78;17.88;;;12.70;99.50;;;;;;5064695;28;20481;-72
2023/09/02 06:52:15;;;;;;;44.85;18.15;;;12.80;99.60;;;;;;5067697;28;20024;-72
2023/09/02 06:54:40;;;;;;;53.03;18.50;;;13.00;99.60;;;;;;5064706;28;20473;-75
2023/09/02 06:57:06;;;;;;;53.83;19.35;;;13.10;99.60;;;;;;5059377;28;20179;-70
2023/09/02 06:59:33;;;;;;;41.80;18.52;;;13.30;99.50;;;;;;5067761;28;20024;-71
2023/09/02 07:01:59;;;;;;;42.78;18.30;;;13.30;99.30;;;;;;5057456;28;20032;-71
2023/09/02 07:04:24;;;;;;;57.95;19.20;;;13.40;99.10;;;;;;5065049;28;20457;-71
2023/09/02 07:06:50;;;;;;;39.65;16.27;;;13.50;99.00;;;;;;5072912;28;20048;-73
2023/09/02 07:09:15;;;;;;;32.40;14.40;;;13.60;98.80;;;;;;5069751;28;20029;-71
2023/09/02 07:11:40;;;;;;;34.65;14.35;;;13.60;98.60;;;;;;5070468;28;20456;-71
2023/09/02 07:14:06;;;;;;;35.17;15.30;;;13.70;98.30;;;;;;5067372;28;20020;-71
2023/09/02 07:16:31;;;;;;;29.08;12.77;;;13.70;98.10;;;;;;5062425;28;20028;-71
2023/09/02 07:18:58;;;;;;;26.27;11.10;;;13.80;98.00;;;;;;5064958;28;20052;-71
2023/09/02 07:21:24;;;;;;;22.58;11.27;;;13.90;97.80;;;;;;5061415;28;20021;-70
2023/09/02 07:23:51;;;;;;;20.05;9.80;;;14.00;97.30;;;;;;5068352;28;20518;-70
2023/09/02 07:26:17;;;;;;;18.63;9.20;;;14.10;96.90;;;;;;5068713;28;20136;-71
2023/09/02 07:28:42;;;;;;;13.57;7.38;;;14.10;96.60;;;;;;5065262;28;20108;-73
2023/09/02 07:31:09;;;;;;;13.20;6.68;;;14.20;96.60;;;;;;5064776;28;20035;-71
2023/09/02 07:33:34;;;;;;;11.55;5.60;;;14.30;96.60;;;;;;5066975;28;20028;-72
2023/09/02 07:36:12;;;;;;;9.82;5.65;;;14.30;96.10;;;;;;5064280;28;20040;-71
2023/09/02 07:38:39;;;;;;;10.55;4.43;;;14.50;96.30;;;;;;5069699;28;20040;-71
2023/09/02 07:41:04;;;;;;;8.50;4.25;;;14.50;96.00;;;;;;5062400;28;20020;-73
2023/09/02 07:43:30;;;;;;;7.88;4.07;;;14.60;95.20;;;;;;5065204;28;20507;-73
2023/09/02 07:45:56;;;;;;;8.52;3.45;;;14.70;95.40;;;;;;5064791;28;20115;-73
2023/09/02 07:48:21;;;;;;;7.20;3.22;;;14.90;93.70;;;;;;5064700;28;20485;-74
2023/09/02 07:50:47;;;;;;;6.53;3.33;;;15.00;93.50;;;;;;5067078;28;20040;-73
2023/09/02 07:53:13;;;;;;;8.90;5.07;;;15.20;93.70;;;;;;5058913;28;20024;-73
2023/09/02 07:55:38;;;;;;;9.38;4.70;;;15.40;93.20;;;;;;5067842;28;20029;-74
2023/09/02 07:58:04;;;;;;;12.13;4.80;;;15.70;91.70;;;;;;5065969;28;20044;-73
2023/09/02 08:00:32;;;;;;;7.43;5.20;;;15.80;91.40;;;;;;5063867;28;20103;-73
2023/09/02 08:02:57;;;;;;;7.22;4.70;;;16.00;90.10;;;;;;5066785;28;20033;-73
2023/09/02 08:05:23;;;;;;;9.57;4.70;;;16.10;90.30;;;;;;5065403;28;20025;-74
2023/09/02 08:07:48;;;;;;;7.75;4.22;;;16.30;90.80;;;;;;5070180;28;20077;-74
2023/09/02 08:10:14;;;;;;;7.38;4.28;;;16.50;90.40;;;;;;5065110;28;20021;-73
2023/09/02 08:12:40;;;;;;;10.13;4.70;;;16.50;89.80;;;;;;5066462;28;20021;-71
2023/09/02 08:15:06;;;;;;;8.88;4.63;;;16.70;89.70;;;;;;5058684;28;20470;-70
2023/09/02 08:17:40;;;;;;;6.20;3.53;;;16.90;88.40;;;;;;5065251;28;20159;-71
2023/09/02 08:20:06;;;;;;;7.85;4.20;;;17.20;88.10;;;;;;5062795;28;20029;-71
2023/09/02 08:22:32;;;;;;;7.88;4.30;;;17.40;85.60;;;;;;5067697;28;20404;-72
2023/09/02 08:24:58;;;;;;;7.22;3.45;;;17.60;87.50;;;;;;5068726;28;20048;-71
2023/09/02 08:27:25;;;;;;;10.63;3.65;;;17.60;84.20;;;;;;5066562;28;20021;-72
2023/09/02 08:29:52;;;;;;;11.82;3.70;;;17.80;87.00;;;;;;5061108;28;20028;-72
2023/09/02 08:32:17;;;;;;;6.18;3.10;;;18.00;86.00;;;;;;5064707;28;20472;-72
2023/09/02 08:34:43;;;;;;;8.23;2.65;;;18.10;84.60;;;;;;5061445;28;20077;-71
2023/09/02 08:37:08;;;;;;;6.13;2.78;;;18.30;83.40;;;;;;5056872;28;20086;-71
2023/09/02 08:39:34;;;;;;;5.75;2.80;;;18.50;82.30;;;;;;5060181;28;20157;-81
2023/09/02 08:41:59;;;;;;;5.80;2.17;;;18.50;80.60;;;;;;5062192;28;20035;-73
2023/09/02 08:44:33;;;;;;;6.95;2.40;;;18.60;82.40;;;;;;5067227;28;20029;-72
2023/09/02 08:47:01;;;;;;;5.30;2.33;;;18.60;79.20;;;;;;5066844;28;20025;-71
2023/09/02 08:49:27;;;;;;;7.45;2.90;;;18.60;78.60;;;;;;5063972;28;20067;-69
2023/09/02 08:51:53;;;;;;;6.50;3.30;;;18.80;78.00;;;;;;5062716;28;20017;-71
2023/09/02 08:54:21;;;;;;;8.13;3.10;;;18.90;76.00;;;;;;5070267;28;20032;-72
2023/09/02 08:56:48;;;;;;;6.32;2.67;;;19.00;77.60;;;;;;5065634;28;20040;-71
2023/09/02 08:59:14;;;;;;;6.68;3.20;;;19.10;76.00;;;;;;5067014;28;20060;-72
2023/09/02 09:01:44;;;;;;;6.93;2.80;;;19.00;76.10;;;;;;5060001;28;20085;-71
2023/09/02 09:04:14;;;;;;;7.87;3.00;;;19.20;76.20;;;;;;5069439;28;20036;-71
2023/09/02 09:06:40;;;;;;;10.77;3.72;;;19.30;74.50;;;;;;5071660;28;20274;-73
2023/09/02 09:09:11;;;;;;;9.15;2.63;;;19.30;73.70;;;;;;5070696;28;20119;-70
2023/09/02 09:11:40;;;;;;;7.68;2.80;;;19.40;73.50;;;;;;5069235;28;20048;-71
2023/09/02 09:14:11;;;;;;;6.95;3.30;;;19.60;75.90;;;;;;5067075;28;20388;-70
2023/09/02 09:16:39;;;;;;;6.20;3.30;;;19.60;73.60;;;;;;5068128;28;20027;-71
2023/09/02 09:19:04;;;;;;;4.78;2.38;;;19.50;72.90;;;;;;5065028;28;20067;-71
2023/09/02 09:21:30;;;;;;;6.47;3.30;;;19.80;74.90;;;;;;5063623;28;20052;-71
2023/09/02 09:23:56;;;;;;;8.52;3.50;;;19.80;74.10;;;;;;5066893;28;20127;-71
2023/09/02 09:26:24;;;;;;;11.27;3.30;;;20.10;76.70;;;;;;5064361;28;20024;-71
2023/09/02 09:28:55;;;;;;;5.88;3.22;;;20.30;72.10;;;;;;5069246;28;20036;-71
2023/09/02 09:31:22;;;;;;;7.43;3.20;;;20.40;72.30;;;;;;5060992;28;20037;-71
2023/09/02 09:33:49;;;;;;;8.23;3.22;;;20.40;71.60;;;;;;5058338;28;20386;-71
2023/09/02 09:36:17;;;;;;;6.88;3.67;;;20.30;70.90;;;;;;5064482;28;20373;-70
2023/09/02 09:38:42;;;;;;;8.02;3.15;;;20.40;70.50;;;;;;5058359;28;20484;-71
2023/09/02 09:41:11;;;;;;;6.82;3.72;;;20.60;70.50;;;;;;5025602;28;22325;-71
2023/09/02 09:43:37;;;;;;;8.82;3.47;;;20.60;69.70;;;;;;5067000;28;20051;-71
2023/09/02 09:46:03;;;;;;;7.47;3.28;;;20.80;70.10;;;;;;5069096;28;20041;-71
2023/09/02 09:48:29;;;;;;;8.13;3.80;;;20.70;69.60;;;;;;5067632;28;20555;-71
2023/09/02 09:50:55;;;;;;;9.15;4.05;;;20.00;70.60;;;;;;5065173;28;20033;-72
2023/09/02 09:53:21;;;;;;;8.90;4.60;;;19.70;71.80;;;;;;5069401;28;20043;-71
2023/09/02 09:55:46;;;;;;;7.85;3.70;;;20.10;72.10;;;;;;5070361;28;20033;-71
2023/09/02 09:58:21;;;;;;;8.40;4.57;;;20.80;71.80;;;;;;5067517;28;20039;-71
2023/09/02 10:00:51;;;;;;;6.60;3.90;;;21.00;69.40;;;;;;5067787;28;20032;-72
2023/09/02 10:03:16;;;;;;;9.87;3.87;;;21.20;66.80;;;;;;5068801;28;20024;-71
2023/09/02 10:05:42;;;;;;;9.43;3.80;;;21.20;66.20;;;;;;5063529;28;20290;-71
2023/09/02 10:08:08;;;;;;;10.15;3.20;;;21.40;65.20;;;;;;5063224;28;20566;-71
2023/09/02 10:10:36;;;;;;;7.30;3.50;;;21.50;64.30;;;;;;5064325;28;20103;-71
2023/09/02 10:13:02;;;;;;;8.88;3.30;;;21.50;63.20;;;;;;5066410;28;20035;-71
2023/09/02 10:15:28;;;;;;;6.20;3.47;;;21.50;63.30;;;;;;5065800;28;20511;-71
2023/09/02 10:17:58;;;;;;;5.97;3.17;;;21.50;65.70;;;;;;5067177;28;20029;-71
2023/09/02 10:20:26;;;;;;;6.43;3.38;;;21.90;64.20;;;;;;5065912;28;20484;-71
2023/09/02 10:22:53;;;;;;;7.70;2.97;;;22.20;64.60;;;;;;5069553;28;20058;-71
2023/09/02 10:25:24;;;;;;;6.63;3.10;;;21.80;63.40;;;;;;5066462;28;20521;-71
2023/09/02 10:28:04;;;;;;;6.32;2.63;;;22.00;63.90;;;;;;5067404;28;20384;-71
2023/09/02 10:30:35;;;;;;;6.38;2.75;;;22.30;63.50;;;;;;5063901;28;20381;-71
2023/09/02 10:33:11;;;;;;;8.52;2.95;;;22.00;63.90;;;;;;5066639;28;20020;-71
2023/09/02 10:35:41;;;;;;;6.70;2.25;;;22.40;63.90;;;;;;5066174;28;20099;-72
2023/09/02 10:38:09;;;;;;;6.80;2.17;;;22.70;62.50;;;;;;5067757;28;20520;-72
2023/09/02 10:40:39;;;;;;;4.30;2.00;;;22.80;60.90;;;;;;5041041;28;20082;-72
2023/09/02 10:43:06;;;;;;;4.15;2.42;;;22.60;60.90;;;;;;5055528;28;20035;-71
2023/09/02 10:45:32;;;;;;;4.00;2.13;;;22.50;60.60;;;;;;5068302;28;20040;-71
2023/09/02 10:47:58;;;;;;;4.90;2.30;;;22.70;61.90;;;;;;5065097;28;20106;-71
2023/09/02 10:50:24;;;;;;;9.07;2.53;;;22.80;61.50;;;;;;5066292;28;20024;-72
2023/09/02 10:52:50;;;;;;;7.50;3.42;;;23.10;60.90;;;;;;5069100;28;20065;-72
2023/09/02 10:55:16;;;;;;;6.35;3.03;;;23.10;61.30;;;;;;5068478;28;20016;-72
2023/09/02 10:57:48;;;;;;;7.30;3.40;;;22.70;61.70;;;;;;5065383;28;20033;-72
2023/09/02 11:00:14;;;;;;;6.72;3.28;;;22.60;61.80;;;;;;5066679;28;20089;-72
2023/09/02 11:02:41;;;;;;;9.35;3.13;;;23.10;61.70;;;;;;5067592;28;20032;-72
2023/09/02 11:05:08;;;;;;;6.25;3.03;;;23.10;62.00;;;;;;5063509;28;20165;-72
2023/09/02 11:07:34;;;;;;;8.45;3.10;;;23.00;60.50;;;;;;5068820;28;20039;-72
2023/09/02 11:10:00;;;;;;;7.45;3.72;;;23.20;61.00;;;;;;5068344;28;20024;-72
2023/09/02 11:12:27;;;;;;;7.18;3.08;;;23.70;61.70;;;;;;5066734;28;20081;-72
2023/09/02 11:15:08;;;;;;;6.75;3.75;;;23.40;59.60;;;;;;5063646;28;20013;-72
2023/09/02 11:17:34;;;;;;;7.75;3.17;;;23.10;59.90;;;;;;5066681;28;20044;-72
2023/09/02 11:20:02;;;;;;;5.32;3.03;;;23.40;60.60;;;;;;5068055;28;20109;-71
2023/09/02 11:22:53;;;;;;;6.72;3.35;;;23.70;58.50;;;;;;5063716;28;20036;-72
2023/09/02 11:25:37;;;;;;;7.30;3.10;;;23.80;57.00;;;;;;5065920;28;20045;-72
2023/09/02 11:28:08;;;;;;;6.90;3.03;;;23.60;58.80;;;;;;5064665;28;20020;-72
2023/09/02 11:30:36;;;;;;;5.05;2.72;;;23.30;59.80;;;;;;5063253;28;20036;-72
2023/09/02 11:33:02;;;;;;;8.82;2.92;;;22.40;61.30;;;;;;5067027;28;20086;-72
2023/09/02 11:35:35;;;;;;;8.15;2.88;;;22.00;63.40;;;;;;5064070;28;20024;-72
2023/09/02 11:38:03;;;;;;;7.13;3.00;;;22.50;63.10;;;;;;5067696;28;20032;-72
2023/09/02 11:40:29;;;;;;;5.80;2.40;;;22.90;58.60;;;;;;5041265;28;20072;-72
2023/09/02 11:43:02;;;;;;;5.93;2.65;;;23.40;57.20;;;;;;5066126;28;20032;-72
2023/09/02 11:45:38;;;;;;;4.65;2.58;;;23.10;58.30;;;;;;5063645;28;20036;-72
2023/09/02 11:48:04;;;;;;;6.00;2.83;;;23.50;58.30;;;;;;5065651;28;20405;-72
2023/09/02 11:50:30;;;;;;;4.55;2.72;;;23.20;58.50;;;;;;5065481;28;20028;-72
2023/09/02 11:52:57;;;;;;;3.95;2.10;;;23.60;57.10;;;;;;5066968;28;20420;-72
2023/09/02 11:55:23;;;;;;;7.90;2.70;;;24.20;55.50;;;;;;5068472;28;20025;-72
2023/09/02 11:57:50;;;;;;;4.82;2.28;;;25.00;56.20;;;;;;5066201;28;20059;-72
2023/09/02 12:00:18;;;;;;;5.50;2.70;;;25.10;54.00;;;;;;5064013;28;20259;-72
2023/09/02 12:02:45;;;;;;;8.07;2.90;;;25.20;53.50;;;;;;5061785;28;20036;-73
2023/09/02 12:05:10;;;;;;;5.95;2.30;;;25.30;55.20;;;;;;5070420;28;20101;-72
2023/09/02 12:07:38;;;;;;;5.03;2.08;;;25.60;53.60;;;;;;5067991;28;20036;-72
2023/09/02 12:10:05;;;;;;;6.55;2.33;;;24.90;54.20;;;;;;5067915;28;20074;-72
2023/09/02 12:12:33;;;;;;;7.45;2.30;;;24.40;54.60;;;;;;5066637;28;20029;-72
2023/09/02 12:15:00;;;;;;;7.78;2.53;;;24.00;57.30;;;;;;5064630;28;20111;-72
2023/09/02 12:17:25;;;;;;;4.30;2.03;;;23.80;55.30;;;;;;5063460;28;20037;-72
2023/09/02 12:19:51;;;;;;;4.22;1.85;;;24.00;54.80;;;;;;5069061;28;20111;-72
2023/09/02 12:22:18;;;;;;;4.38;2.10;;;23.90;55.50;;;;;;5062586;28;20040;-72
2023/09/02 12:24:43;;;;;;;5.00;2.00;;;24.50;55.10;;;;;;5068403;28;20468;-72
2023/09/02 12:27:15;;;;;;;5.35;2.17;;;24.70;54.00;;;;;;5066278;28;20039;-72
2023/09/02 12:29:40;;;;;;;4.43;1.85;;;24.70;52.30;;;;;;5057882;28;20036;-72
2023/09/02 12:32:06;;;;;;;5.50;1.80;;;25.40;52.60;;;;;;5062871;28;20036;-74
2023/09/02 12:34:34;;;;;;;4.65;1.80;;;25.70;50.50;;;;;;5066171;28;20037;-73
2023/09/02 12:37:19;;;;;;;4.85;1.63;;;26.40;50.70;;;;;;5062717;28;20037;-73
2023/09/02 12:39:46;;;;;;;3.65;1.80;;;27.30;49.70;;;;;;5041816;28;20052;-73
2023/09/02 12:42:27;;;;;;;6.45;1.98;;;26.40;49.60;;;;;;5071644;28;20036;-73